createdAt,value
2017-07-10T00:00:03.179Z,16.20
2017-07-10T00:02:31.518Z,16.20
2017-07-10T00:04:59.845Z,16.30
2017-07-10T00:07:29.473Z,16.30
2017-07-10T00:09:57.822Z,16.30
2017-07-10T00:12:26.974Z,16.20
2017-07-10T00:14:55.925Z,16.30
2017-07-10T00:17:24.245Z,16.20
2017-07-10T00:19:52.655Z,16.20
2017-07-10T00:22:21.407Z,16.30
2017-07-10T00:24:49.736Z,16.30
2017-07-10T00:27:18.886Z,16.40
2017-07-10T00:29:47.552Z,16.40
2017-07-10T00:32:15.998Z,16.40
2017-07-10T00:34:44.385Z,16.40
2017-07-10T00:37:13.474Z,16.40
2017-07-10T00:39:42.882Z,16.40
2017-07-10T00:42:11.363Z,16.40
2017-07-10T00:44:40.061Z,16.30
2017-07-10T00:47:08.410Z,16.40
2017-07-10T00:49:36.839Z,16.40
2017-07-10T00:52:06.444Z,16.40
2017-07-10T00:54:34.795Z,16.40
2017-07-10T00:57:03.877Z,16.50
2017-07-10T00:59:33.023Z,16.50
2017-07-10T01:02:01.370Z,16.50
2017-07-10T01:04:29.739Z,16.50
2017-07-10T01:06:59.117Z,16.50
2017-07-10T01:09:27.465Z,16.50
2017-07-10T01:11:55.802Z,16.50
2017-07-10T01:14:26.317Z,16.50
2017-07-10T01:16:54.652Z,16.40
2017-07-10T01:19:24.033Z,16.40
2017-07-10T01:21:52.676Z,16.30
2017-07-10T01:24:21.046Z,16.20
2017-07-10T01:26:51.508Z,16.20
2017-07-10T01:29:20.921Z,16.00
2017-07-10T01:31:49.274Z,16.00
2017-07-10T01:34:17.674Z,15.90
2017-07-10T01:36:46.968Z,15.90
2017-07-10T01:39:15.344Z,16.00
2017-07-10T01:41:43.724Z,15.80
2017-07-10T01:44:13.330Z,15.80
2017-07-10T01:46:42.836Z,15.80
2017-07-10T01:49:11.259Z,15.90
2017-07-10T01:51:40.795Z,15.80
2017-07-10T01:54:09.174Z,15.80
2017-07-10T01:56:37.514Z,15.80
2017-07-10T01:59:06.206Z,15.90
2017-07-10T02:01:34.621Z,15.80
2017-07-10T02:04:02.943Z,15.90
2017-07-10T02:06:31.473Z,15.80
2017-07-10T02:08:59.822Z,15.70
2017-07-10T02:11:28.913Z,15.80
2017-07-10T02:13:58.564Z,15.70
2017-07-10T02:16:27.756Z,15.70
2017-07-10T02:18:56.083Z,15.60
2017-07-10T02:21:24.837Z,15.50
2017-07-10T02:23:53.166Z,15.50
2017-07-10T02:26:22.285Z,15.60
2017-07-10T02:28:51.319Z,15.50
2017-07-10T02:31:19.875Z,15.60
2017-07-10T02:33:48.213Z,15.60
2017-07-10T02:36:17.919Z,15.70
2017-07-10T02:38:46.250Z,15.70
2017-07-10T02:41:14.647Z,15.70
2017-07-10T02:43:44.205Z,15.60
2017-07-10T02:46:12.825Z,15.50
2017-07-10T02:48:41.317Z,15.50
2017-07-10T02:51:10.342Z,15.50
2017-07-10T02:53:38.664Z,15.60
2017-07-10T02:56:07.031Z,15.50
2017-07-10T02:58:36.213Z,15.40
2017-07-10T03:01:04.609Z,15.50
2017-07-10T03:03:32.939Z,15.50
2017-07-10T03:06:01.901Z,15.50
2017-07-10T03:08:30.975Z,15.50
2017-07-10T03:10:59.323Z,15.50
2017-07-10T03:13:27.742Z,15.60
2017-07-10T03:15:56.071Z,15.50
2017-07-10T03:18:24.431Z,15.50
2017-07-10T03:20:52.962Z,15.40
2017-07-10T03:23:21.299Z,15.40
2017-07-10T03:25:49.756Z,15.50
2017-07-10T03:28:18.374Z,15.50
2017-07-10T03:30:46.832Z,15.50
2017-07-10T03:33:15.283Z,15.40
2017-07-10T03:35:44.085Z,15.50
2017-07-10T03:38:13.221Z,15.50
2017-07-10T03:40:41.597Z,15.40
2017-07-10T03:43:09.971Z,15.40
2017-07-10T03:45:38.298Z,15.50
2017-07-10T03:48:06.659Z,15.50
2017-07-10T03:50:36.205Z,15.50
2017-07-10T03:53:04.513Z,15.50
2017-07-10T03:55:32.844Z,15.50
2017-07-10T03:58:01.992Z,15.60
2017-07-10T04:00:30.343Z,15.60
2017-07-10T04:02:58.694Z,15.60
2017-07-10T04:05:27.373Z,15.60
2017-07-10T04:07:55.856Z,15.60
2017-07-10T04:10:24.269Z,15.80
2017-07-10T04:12:53.052Z,15.90
2017-07-10T04:15:21.533Z,16.00
2017-07-10T04:17:50.032Z,16.10
2017-07-10T04:20:18.904Z,16.10
2017-07-10T04:22:47.285Z,16.20
2017-07-10T04:25:15.679Z,16.30
2017-07-10T04:27:44.788Z,16.30
2017-07-10T04:30:13.170Z,16.30
2017-07-10T04:32:41.588Z,16.40
2017-07-10T04:35:10.174Z,16.40
2017-07-10T04:37:38.515Z,16.50
2017-07-10T04:40:06.860Z,16.60
2017-07-10T04:42:35.588Z,16.60
2017-07-10T04:45:03.922Z,16.70
2017-07-10T04:47:35.356Z,16.70
2017-07-10T04:50:04.077Z,16.70
2017-07-10T04:52:32.407Z,16.80
2017-07-10T04:55:00.781Z,16.70
2017-07-10T04:57:29.948Z,16.60
2017-07-10T04:59:58.265Z,16.70
2017-07-10T05:02:27.385Z,17.00
2017-07-10T05:04:56.054Z,16.90
2017-07-10T05:07:24.387Z,17.10
2017-07-10T05:09:53.555Z,17.20
2017-07-10T05:12:22.321Z,17.20
2017-07-10T05:14:50.781Z,17.20
2017-07-10T05:17:19.963Z,17.20
2017-07-10T05:19:48.611Z,17.20
2017-07-10T05:22:17.139Z,17.20
2017-07-10T05:24:45.547Z,17.30
2017-07-10T05:27:14.279Z,17.30
2017-07-10T05:29:42.909Z,17.30
2017-07-10T05:32:11.265Z,17.30
2017-07-10T05:34:39.898Z,17.40
2017-07-10T05:37:10.194Z,17.40
2017-07-10T05:39:38.646Z,17.60
2017-07-10T05:42:08.060Z,17.60
2017-07-10T05:44:36.391Z,17.60
2017-07-10T05:47:04.762Z,17.80
2017-07-10T05:49:33.754Z,18.10
2017-07-10T05:52:02.080Z,18.30
2017-07-10T05:54:30.458Z,18.40
2017-07-10T05:56:59.782Z,18.60
2017-07-10T05:59:28.093Z,18.50
2017-07-10T06:01:57.178Z,18.70
2017-07-10T06:04:26.015Z,18.70
2017-07-10T06:06:54.341Z,18.80
2017-07-10T06:09:22.715Z,18.90
2017-07-10T06:11:51.559Z,19.00
2017-07-10T06:14:19.909Z,19.00
2017-07-10T06:16:49.828Z,19.10
2017-07-10T06:19:18.587Z,19.10
2017-07-10T06:21:47.003Z,19.30
2017-07-10T06:24:16.270Z,19.40
2017-07-10T06:26:45.088Z,19.50
2017-07-10T06:29:13.495Z,19.50
2017-07-10T06:31:42.029Z,19.50
2017-07-10T06:34:12.524Z,19.50
2017-07-10T06:36:40.866Z,19.50
2017-07-10T06:39:09.208Z,19.50
2017-07-10T06:41:37.897Z,19.40
2017-07-10T06:44:06.237Z,19.50
2017-07-10T06:46:34.568Z,19.70
2017-07-10T06:49:05.126Z,19.70
2017-07-10T06:51:33.452Z,19.70
2017-07-10T06:54:02.551Z,19.50
2017-07-10T06:56:31.234Z,19.40
2017-07-10T06:58:59.566Z,19.50
2017-07-10T07:01:28.661Z,19.60
2017-07-10T07:03:57.073Z,19.50
2017-07-10T07:06:25.406Z,19.60
2017-07-10T07:08:53.775Z,19.60
2017-07-10T07:11:22.687Z,19.70
2017-07-10T07:13:51.031Z,19.70
2017-07-10T07:16:19.520Z,19.70
2017-07-10T07:18:48.846Z,20.00
2017-07-10T07:21:17.240Z,20.00
2017-07-10T07:23:45.641Z,20.10
2017-07-10T07:26:15.290Z,20.10
2017-07-10T07:28:43.719Z,20.20
2017-07-10T07:31:14.121Z,20.30
2017-07-10T07:33:43.582Z,20.00
2017-07-10T07:36:12.006Z,20.00
2017-07-10T07:38:40.393Z,20.10
2017-07-10T07:41:09.925Z,20.00
2017-07-10T07:43:38.252Z,20.30
2017-07-10T07:46:06.615Z,20.30
2017-07-10T07:48:35.278Z,20.40
2017-07-10T07:51:03.612Z,20.50
2017-07-10T07:53:32.008Z,20.50
2017-07-10T07:56:00.550Z,20.50
2017-07-10T07:58:28.916Z,20.50
2017-07-10T08:00:57.263Z,20.70
2017-07-10T08:03:25.963Z,20.70
2017-07-10T08:05:54.327Z,20.50
2017-07-10T08:08:22.799Z,20.50
2017-07-10T08:10:52.285Z,20.40
2017-07-10T08:13:20.736Z,20.40
2017-07-10T08:15:49.296Z,20.30
2017-07-10T08:18:18.376Z,20.20
2017-07-10T08:20:51.559Z,20.40
2017-07-10T08:23:20.360Z,20.40
2017-07-10T08:25:48.829Z,20.40
2017-07-10T08:28:17.258Z,20.40
2017-07-10T08:30:45.824Z,20.40
2017-07-10T08:33:14.253Z,20.50
2017-07-10T08:35:43.477Z,20.70
2017-07-10T08:38:12.481Z,20.60
2017-07-10T08:40:41.071Z,20.50
2017-07-10T08:43:09.497Z,20.50
2017-07-10T08:45:38.492Z,20.60
2017-07-10T08:48:06.813Z,20.80
2017-07-10T08:50:35.371Z,20.90
2017-07-10T08:53:05.229Z,21.00
2017-07-10T08:55:33.919Z,21.10
2017-07-10T08:58:02.312Z,21.30
2017-07-10T09:00:31.141Z,21.40
2017-07-10T09:02:59.552Z,21.40
2017-07-10T09:05:28.019Z,21.60
2017-07-10T09:07:56.986Z,21.70
2017-07-10T09:10:25.372Z,21.60
2017-07-10T09:12:53.781Z,21.70
2017-07-10T09:15:22.674Z,21.60
2017-07-10T09:17:51.926Z,21.60
2017-07-10T09:20:20.388Z,21.60
2017-07-10T09:22:49.671Z,21.60
2017-07-10T09:25:18.230Z,21.50
2017-07-10T09:27:46.816Z,21.70
2017-07-10T09:30:16.318Z,21.80
2017-07-10T09:32:44.951Z,21.80
